TDCF/DCF METAR and TAF weather

Enter ICAO airport designator
Station Type Date Time Source
TDCF METAR 2019/06/19 22:00 UTC NOAA

TDCF 192200Z 13008G21KT 9999 -SHRA BKN018 28/23 Q1014


Station Type Date Time Source
TDCF Decoded METAR 2019/06/19 22:00 UTC NOAA

Canefield Airport, Dominica (TDCF) 15-32N 061-24W 5M
Jun 19, 2019 - 06:00 PM EDT / 2019.06.19 2200 UTC
Wind: from the SE (130 degrees) at 9 MPH (8 KT) gusting to 24 MPH (21 KT):0
Visibility: greater than 7 mile(s):0
Sky conditions: mostly cloudy
Weather: light rain showers
Temperature: 82 F (28 C)
Dew Point: 73 F (23 C)
Relative Humidity: 74%
Pressure (altimeter): 29.94 in. Hg (1014 hPa)
ob: TDCF 192200Z 13008G21KT 9999 -SHRA BKN018 28/23 Q1014
cycle: 22

Station Type Date Time Source
TDCF TAF 2012/05/01 18:15 UTC NOAA

TAF TDCF 011600Z 0118/0218 110010KT 9999 SCT018 BKN030
TEMPO 0118/0206 6000 SHRA BKN014 BKN070

Example: see airport list